sensor_id;sensor_type;location;lat;lon;timestamp;temperature;humidity
78028;DHT22;67235;45.638;11.714;2023-08-07T04:09:42;15.40;78.70
78028;DHT22;67235;45.638;11.714;2023-08-07T04:13:00;15.40;78.30
78028;DHT22;67235;45.638;11.714;2023-08-07T04:22:27;15.50;76.70
78028;DHT22;67235;45.638;11.714;2023-08-07T04:27:56;15.60;76.40
78028;DHT22;67235;45.638;11.714;2023-08-07T05:36:03;32.90;33.80
78028;DHT22;67235;45.638;11.714;2023-08-07T05:38:35;33.00;33.70
78028;DHT22;67235;45.638;11.714;2023-08-07T05:41:11;34.00;32.10
78028;DHT22;67235;45.638;11.714;2023-08-07T05:43:45;34.40;31.30
78028;DHT22;67235;45.638;11.714;2023-08-07T05:46:17;34.80;30.90
78028;DHT22;67235;45.638;11.714;2023-08-07T05:48:48;34.90;30.50
78028;DHT22;67235;45.638;11.714;2023-08-07T05:51:14;34.90;30.80
78028;DHT22;67235;45.638;11.714;2023-08-07T05:53:40;35.30;29.80
78028;DHT22;67235;45.638;11.714;2023-08-07T05:56:35;35.60;28.90
78028;DHT22;67235;45.638;11.714;2023-08-07T06:23:51;36.50;28.20
78028;DHT22;67235;45.638;11.714;2023-08-07T06:26:42;36.70;28.60
78028;DHT22;67235;45.638;11.714;2023-08-07T08:29:00;32.80;29.40
78028;DHT22;67235;45.638;11.714;2023-08-07T08:31:26;32.90;24.90
78028;DHT22;67235;45.638;11.714;2023-08-07T08:33:52;32.70;29.00
78028;DHT22;67235;45.638;11.714;2023-08-07T08:36:21;32.40;30.10
78028;DHT22;67235;45.638;11.714;2023-08-07T08:38:52;32.60;30.30
78028;DHT22;67235;45.638;11.714;2023-08-07T08:41:21;33.10;29.50
78028;DHT22;67235;45.638;11.714;2023-08-07T08:43:49;32.90;28.10
78028;DHT22;67235;45.638;11.714;2023-08-07T08:46:20;32.50;27.20
78028;DHT22;67235;45.638;11.714;2023-08-07T08:48:55;32.50;27.90
78028;DHT22;67235;45.638;11.714;2023-08-07T08:51:25;32.20;28.30
78028;DHT22;67235;45.638;11.714;2023-08-07T08:54:05;32.30;27.20
78028;DHT22;67235;45.638;11.714;2023-08-07T08:56:45;32.20;26.30
78028;DHT22;67235;45.638;11.714;2023-08-07T08:59:13;32.40;26.40
78028;DHT22;67235;45.638;11.714;2023-08-07T09:01:51;32.30;28.30
78028;DHT22;67235;45.638;11.714;2023-08-07T09:04:37;32.90;29.80
78028;DHT22;67235;45.638;11.714;2023-08-07T09:07:13;33.20;26.80
78028;DHT22;67235;45.638;11.714;2023-08-07T09:09:46;33.40;26.10
78028;DHT22;67235;45.638;11.714;2023-08-07T09:12:20;33.30;24.80
78028;DHT22;67235;45.638;11.714;2023-08-07T09:14:52;33.10;24.90
78028;DHT22;67235;45.638;11.714;2023-08-07T09:17:20;33.20;25.00
78028;DHT22;67235;45.638;11.714;2023-08-07T09:19:50;33.00;26.40
78028;DHT22;67235;45.638;11.714;2023-08-07T09:25:27;32.90;22.50
78028;DHT22;67235;45.638;11.714;2023-08-07T09:28:04;32.70;22.70
78028;DHT22;67235;45.638;11.714;2023-08-07T09:30:31;33.00;22.90
78028;DHT22;67235;45.638;11.714;2023-08-07T09:32:57;32.90;20.90
78028;DHT22;67235;45.638;11.714;2023-08-07T09:35:24;32.90;21.80
78028;DHT22;67235;45.638;11.714;2023-08-07T09:37:50;32.70;21.30
78028;DHT22;67235;45.638;11.714;2023-08-07T09:40:19;33.00;25.50
78028;DHT22;67235;45.638;11.714;2023-08-07T09:42:51;33.20;25.50
78028;DHT22;67235;45.638;11.714;2023-08-07T09:45:22;33.00;23.70
78028;DHT22;67235;45.638;11.714;2023-08-07T09:48:14;33.10;25.30
78028;DHT22;67235;45.638;11.714;2023-08-07T09:50:41;33.30;24.50
78028;DHT22;67235;45.638;11.714;2023-08-07T09:53:08;33.10;26.20
78028;DHT22;67235;45.638;11.714;2023-08-07T09:55:36;32.60;26.50
78028;DHT22;67235;45.638;11.714;2023-08-07T09:58:02;32.70;27.20
78028;DHT22;67235;45.638;11.714;2023-08-07T10:00:35;32.70;25.60
78028;DHT22;67235;45.638;11.714;2023-08-07T10:03:02;32.80;24.40
78028;DHT22;67235;45.638;11.714;2023-08-07T10:05:28;33.10;28.30
78028;DHT22;67235;45.638;11.714;2023-08-07T10:07:55;33.10;24.30
78028;DHT22;67235;45.638;11.714;2023-08-07T10:10:21;33.20;27.10
78028;DHT22;67235;45.638;11.714;2023-08-07T10:12:48;32.90;24.70
78028;DHT22;67235;45.638;11.714;2023-08-07T10:15:15;32.60;25.60
78028;DHT22;67235;45.638;11.714;2023-08-07T10:17:41;32.50;25.00
78028;DHT22;67235;45.638;11.714;2023-08-07T10:20:09;32.60;28.20
78028;DHT22;67235;45.638;11.714;2023-08-07T10:22:38;32.70;25.40
78028;DHT22;67235;45.638;11.714;2023-08-07T10:25:07;32.70;22.20
78028;DHT22;67235;45.638;11.714;2023-08-07T10:27:37;32.80;24.60
78028;DHT22;67235;45.638;11.714;2023-08-07T10:30:06;32.80;23.20
78028;DHT22;67235;45.638;11.714;2023-08-07T10:32:35;33.00;25.50
78028;DHT22;67235;45.638;11.714;2023-08-07T10:35:05;33.10;20.20
78028;DHT22;67235;45.638;11.714;2023-08-07T10:37:42;33.20;21.30
78028;DHT22;67235;45.638;11.714;2023-08-07T10:40:11;33.30;22.40
78028;DHT22;67235;45.638;11.714;2023-08-07T10:42:57;33.30;23.00
78028;DHT22;67235;45.638;11.714;2023-08-07T10:45:27;33.50;21.90
78028;DHT22;67235;45.638;11.714;2023-08-07T10:48:13;33.60;21.80
78028;DHT22;67235;45.638;11.714;2023-08-07T10:50:56;33.50;18.00
78028;DHT22;67235;45.638;11.714;2023-08-07T10:53:36;33.50;20.00
78028;DHT22;67235;45.638;11.714;2023-08-07T10:56:08;33.50;20.80
78028;DHT22;67235;45.638;11.714;2023-08-07T10:58:36;33.40;20.20
78028;DHT22;67235;45.638;11.714;2023-08-07T11:01:27;33.40;19.90
78028;DHT22;67235;45.638;11.714;2023-08-07T11:03:57;33.20;19.20
78028;DHT22;67235;45.638;11.714;2023-08-07T11:06:25;33.10;20.00
78028;DHT22;67235;45.638;11.714;2023-08-07T11:08:52;32.90;18.40
78028;DHT22;67235;45.638;11.714;2023-08-07T11:11:18;32.50;21.10
78028;DHT22;67235;45.638;11.714;2023-08-07T11:13:45;32.40;19.50
78028;DHT22;67235;45.638;11.714;2023-08-07T11:16:11;32.50;19.10
78028;DHT22;67235;45.638;11.714;2023-08-07T11:18:38;32.00;20.20
78028;DHT22;67235;45.638;11.714;2023-08-07T11:21:11;32.10;19.80
78028;DHT22;67235;45.638;11.714;2023-08-07T11:23:38;32.00;24.40
78028;DHT22;67235;45.638;11.714;2023-08-07T11:26:04;32.30;23.50
78028;DHT22;67235;45.638;11.714;2023-08-07T11:28:30;32.10;21.00
78028;DHT22;67235;45.638;11.714;2023-08-07T11:30:56;32.10;20.40
78028;DHT22;67235;45.638;11.714;2023-08-07T11:33:27;31.90;24.70
78028;DHT22;67235;45.638;11.714;2023-08-07T11:35:53;31.40;23.60
78028;DHT22;67235;45.638;11.714;2023-08-07T11:38:40;31.70;24.40
78028;DHT22;67235;45.638;11.714;2023-08-07T11:41:07;31.90;25.20
78028;DHT22;67235;45.638;11.714;2023-08-07T11:43:34;32.00;23.40
78028;DHT22;67235;45.638;11.714;2023-08-07T11:46:05;31.80;22.90
78028;DHT22;67235;45.638;11.714;2023-08-07T11:48:33;31.20;23.50
78028;DHT22;67235;45.638;11.714;2023-08-07T11:51:00;30.90;24.30
78028;DHT22;67235;45.638;11.714;2023-08-07T11:53:34;30.40;23.80
78028;DHT22;67235;45.638;11.714;2023-08-07T11:56:09;30.00;24.10
78028;DHT22;67235;45.638;11.714;2023-08-07T11:58:37;30.00;24.00
78028;DHT22;67235;45.638;11.714;2023-08-07T12:01:04;30.20;22.50
78028;DHT22;67235;45.638;11.714;2023-08-07T12:03:36;30.70;26.50
78028;DHT22;67235;45.638;11.714;2023-08-07T12:06:05;30.80;23.50
78028;DHT22;67235;45.638;11.714;2023-08-07T12:08:34;30.80;19.20
78028;DHT22;67235;45.638;11.714;2023-08-07T12:11:04;30.80;23.30
78028;DHT22;67235;45.638;11.714;2023-08-07T12:13:30;30.60;25.40
78028;DHT22;67235;45.638;11.714;2023-08-07T12:15:58;30.20;23.20
78028;DHT22;67235;45.638;11.714;2023-08-07T12:18:29;29.90;22.70
78028;DHT22;67235;45.638;11.714;2023-08-07T12:21:20;29.80;23.00
78028;DHT22;67235;45.638;11.714;2023-08-07T12:23:46;30.10;25.80
78028;DHT22;67235;45.638;11.714;2023-08-07T12:26:13;30.10;24.00
78028;DHT22;67235;45.638;11.714;2023-08-07T12:28:40;29.70;23.70
78028;DHT22;67235;45.638;11.714;2023-08-07T12:31:06;29.80;24.60
78028;DHT22;67235;45.638;11.714;2023-08-07T12:33:32;29.90;24.70
78028;DHT22;67235;45.638;11.714;2023-08-07T12:36:04;30.00;24.30
78028;DHT22;67235;45.638;11.714;2023-08-07T12:38:36;30.10;24.60
78028;DHT22;67235;45.638;11.714;2023-08-07T12:41:03;30.40;23.60
78028;DHT22;67235;45.638;11.714;2023-08-07T12:43:31;30.40;22.00
78028;DHT22;67235;45.638;11.714;2023-08-07T12:46:00;30.50;25.80
78028;DHT22;67235;45.638;11.714;2023-08-07T12:48:27;30.40;22.40
78028;DHT22;67235;45.638;11.714;2023-08-07T12:50:54;29.90;21.80
78028;DHT22;67235;45.638;11.714;2023-08-07T12:53:21;29.70;22.50
78028;DHT22;67235;45.638;11.714;2023-08-07T12:55:47;29.60;25.10
78028;DHT22;67235;45.638;11.714;2023-08-07T12:58:13;29.60;23.50
78028;DHT22;67235;45.638;11.714;2023-08-07T13:00:41;29.60;22.40
78028;DHT22;67235;45.638;11.714;2023-08-07T13:03:07;29.20;23.10
78028;DHT22;67235;45.638;11.714;2023-08-07T13:05:33;29.20;23.60
78028;DHT22;67235;45.638;11.714;2023-08-07T13:07:59;29.20;25.80
78028;DHT22;67235;45.638;11.714;2023-08-07T13:10:25;29.10;24.80
78028;DHT22;67235;45.638;11.714;2023-08-07T13:12:54;29.10;26.10
78028;DHT22;67235;45.638;11.714;2023-08-07T13:15:22;28.90;25.10
78028;DHT22;67235;45.638;11.714;2023-08-07T13:17:48;29.00;26.80
78028;DHT22;67235;45.638;11.714;2023-08-07T13:20:14;29.10;27.00
78028;DHT22;67235;45.638;11.714;2023-08-07T13:22:42;29.30;24.90
78028;DHT22;67235;45.638;11.714;2023-08-07T13:25:11;29.10;23.60
78028;DHT22;67235;45.638;11.714;2023-08-07T13:27:54;29.30;24.30
78028;DHT22;67235;45.638;11.714;2023-08-07T13:30:20;29.40;25.90
78028;DHT22;67235;45.638;11.714;2023-08-07T13:32:46;29.40;25.60
78028;DHT22;67235;45.638;11.714;2023-08-07T13:35:12;29.60;22.80
78028;DHT22;67235;45.638;11.714;2023-08-07T13:37:38;29.60;23.00
78028;DHT22;67235;45.638;11.714;2023-08-07T13:40:06;29.00;20.70
78028;DHT22;67235;45.638;11.714;2023-08-07T13:42:36;28.90;21.00
78028;DHT22;67235;45.638;11.714;2023-08-07T13:45:04;29.00;22.20
78028;DHT22;67235;45.638;11.714;2023-08-07T13:47:30;29.20;24.50
78028;DHT22;67235;45.638;11.714;2023-08-07T13:49:56;29.50;21.70
78028;DHT22;67235;45.638;11.714;2023-08-07T13:52:23;29.50;23.10
78028;DHT22;67235;45.638;11.714;2023-08-07T13:54:51;29.50;22.10
78028;DHT22;67235;45.638;11.714;2023-08-07T13:57:17;29.40;21.60
78028;DHT22;67235;45.638;11.714;2023-08-07T13:59:43;29.70;22.20
78028;DHT22;67235;45.638;11.714;2023-08-07T14:02:09;29.70;19.90
78028;DHT22;67235;45.638;11.714;2023-08-07T14:04:35;29.80;23.80
78028;DHT22;67235;45.638;11.714;2023-08-07T14:07:02;29.60;21.50
78028;DHT22;67235;45.638;11.714;2023-08-07T14:09:28;29.30;21.50
78028;DHT22;67235;45.638;11.714;2023-08-07T14:11:54;28.80;22.30
78028;DHT22;67235;45.638;11.714;2023-08-07T14:14:21;28.80;24.50
78028;DHT22;67235;45.638;11.714;2023-08-07T14:16:47;28.70;22.90
78028;DHT22;67235;45.638;11.714;2023-08-07T14:19:13;28.70;22.20
78028;DHT22;67235;45.638;11.714;2023-08-07T14:21:39;29.00;23.00
78028;DHT22;67235;45.638;11.714;2023-08-07T14:24:05;29.30;22.80
78028;DHT22;67235;45.638;11.714;2023-08-07T14:26:31;29.40;23.40
78028;DHT22;67235;45.638;11.714;2023-08-07T14:28:57;29.60;22.00
78028;DHT22;67235;45.638;11.714;2023-08-07T14:31:23;29.90;21.40
78028;DHT22;67235;45.638;11.714;2023-08-07T14:33:49;29.90;21.80
78028;DHT22;67235;45.638;11.714;2023-08-07T14:36:15;30.10;20.90
78028;DHT22;67235;45.638;11.714;2023-08-07T14:38:41;30.20;22.30
78028;DHT22;67235;45.638;11.714;2023-08-07T14:41:07;30.40;21.80
78028;DHT22;67235;45.638;11.714;2023-08-07T14:43:33;30.20;20.70
78028;DHT22;67235;45.638;11.714;2023-08-07T14:46:00;30.00;19.70
78028;DHT22;67235;45.638;11.714;2023-08-07T14:48:26;29.90;18.00
78028;DHT22;67235;45.638;11.714;2023-08-07T14:50:55;29.80;19.10
78028;DHT22;67235;45.638;11.714;2023-08-07T14:53:23;29.70;21.90
78028;DHT22;67235;45.638;11.714;2023-08-07T14:55:50;29.50;22.10
78028;DHT22;67235;45.638;11.714;2023-08-07T14:58:16;29.40;22.60
78028;DHT22;67235;45.638;11.714;2023-08-07T15:00:42;29.40;20.70
78028;DHT22;67235;45.638;11.714;2023-08-07T15:03:10;29.40;22.60
78028;DHT22;67235;45.638;11.714;2023-08-07T15:05:36;29.10;21.40
78028;DHT22;67235;45.638;11.714;2023-08-07T15:08:03;28.90;23.20
78028;DHT22;67235;45.638;11.714;2023-08-07T15:10:29;28.60;20.80
78028;DHT22;67235;45.638;11.714;2023-08-07T15:12:55;28.50;22.10
78028;DHT22;67235;45.638;11.714;2023-08-07T15:15:24;28.70;23.00
78028;DHT22;67235;45.638;11.714;2023-08-07T15:17:50;28.80;19.90
78028;DHT22;67235;45.638;11.714;2023-08-07T15:20:15;28.70;20.40
78028;DHT22;67235;45.638;11.714;2023-08-07T15:22:41;28.80;22.90
78028;DHT22;67235;45.638;11.714;2023-08-07T15:25:08;28.90;23.90
78028;DHT22;67235;45.638;11.714;2023-08-07T15:27:34;28.80;20.90
78028;DHT22;67235;45.638;11.714;2023-08-07T15:30:00;28.90;20.30
78028;DHT22;67235;45.638;11.714;2023-08-07T15:32:38;28.90;19.50
78028;DHT22;67235;45.638;11.714;2023-08-07T15:35:06;28.90;22.10
78028;DHT22;67235;45.638;11.714;2023-08-07T15:37:32;28.70;20.20
78028;DHT22;67235;45.638;11.714;2023-08-07T15:40:01;28.60;20.80
78028;DHT22;67235;45.638;11.714;2023-08-07T15:42:30;28.50;21.60
78028;DHT22;67235;45.638;11.714;2023-08-07T15:44:59;28.40;21.50
78028;DHT22;67235;45.638;11.714;2023-08-07T15:47:25;28.40;20.70
78028;DHT22;67235;45.638;11.714;2023-08-07T15:49:54;28.40;21.20
78028;DHT22;67235;45.638;11.714;2023-08-07T15:52:26;28.20;20.50
78028;DHT22;67235;45.638;11.714;2023-08-07T15:54:52;28.30;22.20
78028;DHT22;67235;45.638;11.714;2023-08-07T15:57:20;28.40;19.70
78028;DHT22;67235;45.638;11.714;2023-08-07T15:59:46;28.40;21.50
78028;DHT22;67235;45.638;11.714;2023-08-07T16:02:12;28.30;20.20
78028;DHT22;67235;45.638;11.714;2023-08-07T16:04:38;28.30;20.80
78028;DHT22;67235;45.638;11.714;2023-08-07T16:07:04;28.30;24.30
78028;DHT22;67235;45.638;11.714;2023-08-07T16:09:35;28.20;22.10
78028;DHT22;67235;45.638;11.714;2023-08-07T16:12:04;28.20;22.40
78028;DHT22;67235;45.638;11.714;2023-08-07T16:14:50;28.10;21.60
78028;DHT22;67235;45.638;11.714;2023-08-07T16:17:16;28.10;20.90
78028;DHT22;67235;45.638;11.714;2023-08-07T16:19:48;28.00;21.50
78028;DHT22;67235;45.638;11.714;2023-08-07T16:22:16;28.10;23.10
78028;DHT22;67235;45.638;11.714;2023-08-07T16:24:44;28.00;21.90
78028;DHT22;67235;45.638;11.714;2023-08-07T16:27:16;28.00;23.20
78028;DHT22;67235;45.638;11.714;2023-08-07T16:29:48;27.90;23.00
78028;DHT22;67235;45.638;11.714;2023-08-07T16:32:15;27.90;23.00
78028;DHT22;67235;45.638;11.714;2023-08-07T16:34:41;27.90;21.80
78028;DHT22;67235;45.638;11.714;2023-08-07T16:37:07;27.90;25.00
78028;DHT22;67235;45.638;11.714;2023-08-07T16:39:36;27.90;21.20
78028;DHT22;67235;45.638;11.714;2023-08-07T16:42:05;27.60;22.40
78028;DHT22;67235;45.638;11.714;2023-08-07T16:44:52;27.70;21.90
78028;DHT22;67235;45.638;11.714;2023-08-07T16:47:38;27.70;23.00
78028;DHT22;67235;45.638;11.714;2023-08-07T16:50:15;27.70;24.90
78028;DHT22;67235;45.638;11.714;2023-08-07T16:52:44;27.60;25.50
78028;DHT22;67235;45.638;11.714;2023-08-07T16:55:21;27.50;26.20
78028;DHT22;67235;45.638;11.714;2023-08-07T17:00:24;27.30;24.10
78028;DHT22;67235;45.638;11.714;2023-08-07T17:03:05;27.20;26.30
78028;DHT22;67235;45.638;11.714;2023-08-07T17:05:56;27.20;27.30
78028;DHT22;67235;45.638;11.714;2023-08-07T17:08:42;27.10;27.10
78028;DHT22;67235;45.638;11.714;2023-08-07T17:14:09;27.00;26.00
78028;DHT22;67235;45.638;11.714;2023-08-07T17:19:24;26.80;25.60
78028;DHT22;67235;45.638;11.714;2023-08-07T17:21:59;26.80;25.60
78028;DHT22;67235;45.638;11.714;2023-08-07T17:24:25;26.70;24.20
78028;DHT22;67235;45.638;11.714;2023-08-07T17:26:51;26.60;27.00
78028;DHT22;67235;45.638;11.714;2023-08-07T17:29:17;26.70;27.50
78028;DHT22;67235;45.638;11.714;2023-08-07T17:31:43;26.60;28.20
78028;DHT22;67235;45.638;11.714;2023-08-07T17:34:09;26.50;28.30
78028;DHT22;67235;45.638;11.714;2023-08-07T17:36:35;26.40;26.50
78028;DHT22;67235;45.638;11.714;2023-08-07T17:39:01;26.40;29.30
78028;DHT22;67235;45.638;11.714;2023-08-07T17:41:27;26.20;31.20
78028;DHT22;67235;45.638;11.714;2023-08-07T17:43:53;26.10;28.30
78028;DHT22;67235;45.638;11.714;2023-08-07T17:46:19;26.00;29.40
78028;DHT22;67235;45.638;11.714;2023-08-07T17:48:50;26.00;30.00
78028;DHT22;67235;45.638;11.714;2023-08-07T17:51:26;25.90;30.40
78028;DHT22;67235;45.638;11.714;2023-08-07T17:54:05;25.80;30.50
78028;DHT22;67235;45.638;11.714;2023-08-07T17:56:44;25.70;30.30
78028;DHT22;67235;45.638;11.714;2023-08-07T17:59:19;25.60;32.30
78028;DHT22;67235;45.638;11.714;2023-08-07T18:01:52;25.40;31.80
78028;DHT22;67235;45.638;11.714;2023-08-07T18:07:40;25.40;34.70
78028;DHT22;67235;45.638;11.714;2023-08-07T18:59:14;22.60;55.80
78028;DHT22;67235;45.638;11.714;2023-08-07T19:04:16;22.50;60.90
78028;DHT22;67235;45.638;11.714;2023-08-07T19:06:42;22.30;60.10
78028;DHT22;67235;45.638;11.714;2023-08-07T19:09:09;22.30;62.00
78028;DHT22;67235;45.638;11.714;2023-08-07T19:11:36;22.30;58.40
78028;DHT22;67235;45.638;11.714;2023-08-07T19:14:04;22.20;63.60
78028;DHT22;67235;45.638;11.714;2023-08-07T19:16:33;22.10;55.30
78028;DHT22;67235;45.638;11.714;2023-08-07T19:19:01;22.10;60.10
78028;DHT22;67235;45.638;11.714;2023-08-07T19:21:27;22.00;62.80
78028;DHT22;67235;45.638;11.714;2023-08-07T19:23:53;21.80;64.60
78028;DHT22;67235;45.638;11.714;2023-08-07T19:26:19;21.60;64.40
78028;DHT22;67235;45.638;11.714;2023-08-07T19:28:45;21.40;64.10
78028;DHT22;67235;45.638;11.714;2023-08-07T19:31:11;21.50;64.70
78028;DHT22;67235;45.638;11.714;2023-08-07T19:33:38;21.50;65.00
78028;DHT22;67235;45.638;11.714;2023-08-07T19:36:11;21.50;64.50
78028;DHT22;67235;45.638;11.714;2023-08-07T19:38:42;21.40;64.80
78028;DHT22;67235;45.638;11.714;2023-08-07T19:41:08;21.30;65.30
78028;DHT22;67235;45.638;11.714;2023-08-07T19:43:34;21.20;65.80
78028;DHT22;67235;45.638;11.714;2023-08-07T19:46:00;21.30;65.90
78028;DHT22;67235;45.638;11.714;2023-08-07T19:48:26;21.10;66.70
78028;DHT22;67235;45.638;11.714;2023-08-07T19:50:54;21.10;67.10
78028;DHT22;67235;45.638;11.714;2023-08-07T19:53:20;21.00;66.70
78028;DHT22;67235;45.638;11.714;2023-08-07T19:55:46;20.80;67.20
78028;DHT22;67235;45.638;11.714;2023-08-07T19:58:15;20.60;67.60
78028;DHT22;67235;45.638;11.714;2023-08-07T20:00:41;20.60;67.20
78028;DHT22;67235;45.638;11.714;2023-08-07T20:03:07;20.50;66.10
78028;DHT22;67235;45.638;11.714;2023-08-07T20:05:46;20.60;66.90
78028;DHT22;67235;45.638;11.714;2023-08-07T20:08:13;20.50;67.60
78028;DHT22;67235;45.638;11.714;2023-08-07T20:10:39;20.40;66.00
78028;DHT22;67235;45.638;11.714;2023-08-07T20:13:05;20.50;66.20
78028;DHT22;67235;45.638;11.714;2023-08-07T20:15:31;20.50;65.70
78028;DHT22;67235;45.638;11.714;2023-08-07T20:17:57;20.50;65.60
78028;DHT22;67235;45.638;11.714;2023-08-07T20:28:09;20.30;64.40
78028;DHT22;67235;45.638;11.714;2023-08-07T20:30:35;20.40;58.80
78028;DHT22;67235;45.638;11.714;2023-08-07T23:25:10;20.10;51.60
78028;DHT22;67235;45.638;11.714;2023-08-07T23:27:36;20.10;51.00
78028;DHT22;67235;45.638;11.714;2023-08-07T23:30:02;20.10;51.10
78028;DHT22;67235;45.638;11.714;2023-08-07T23:32:30;20.20;52.10
78028;DHT22;67235;45.638;11.714;2023-08-07T23:34:56;20.20;53.10
78028;DHT22;67235;45.638;11.714;2023-08-07T23:37:22;20.20;53.60
78028;DHT22;67235;45.638;11.714;2023-08-07T23:39:47;20.20;54.10
78028;DHT22;67235;45.638;11.714;2023-08-07T23:42:13;20.20;53.90
78028;DHT22;67235;45.638;11.714;2023-08-07T23:44:39;20.10;53.50
78028;DHT22;67235;45.638;11.714;2023-08-07T23:47:05;20.10;54.50
78028;DHT22;67235;45.638;11.714;2023-08-07T23:49:31;20.10;55.20
78028;DHT22;67235;45.638;11.714;2023-08-07T23:51:57;20.10;55.10
78028;DHT22;67235;45.638;11.714;2023-08-07T23:54:23;19.90;55.90
78028;DHT22;67235;45.638;11.714;2023-08-07T23:56:49;20.00;55.90
78028;DHT22;67235;45.638;11.714;2023-08-07T23:59:15;19.90;55.80
